createdAt,value
2019-05-25T00:00:07.509Z,73
2019-05-25T00:00:43.574Z,73
2019-05-25T00:01:19.552Z,74
2019-05-25T00:01:55.525Z,74
2019-05-25T00:02:31.491Z,74
2019-05-25T00:03:07.618Z,74
2019-05-25T00:03:43.546Z,74
2019-05-25T00:04:19.515Z,74
2019-05-25T00:04:55.489Z,73
2019-05-25T00:05:31.685Z,73
2019-05-25T00:06:07.560Z,73
2019-05-25T00:06:43.519Z,73
2019-05-25T00:07:19.595Z,73
2019-05-25T00:07:55.575Z,73
2019-05-25T00:08:31.544Z,73
2019-05-25T00:09:07.511Z,73
2019-05-25T00:09:43.480Z,73
2019-05-25T00:10:19.568Z,73
2019-05-25T00:10:55.580Z,73
2019-05-25T00:11:31.523Z,73
2019-05-25T00:12:07.477Z,73
2019-05-25T00:12:43.572Z,73
2019-05-25T00:13:19.599Z,73
2019-05-25T00:13:55.500Z,73
2019-05-25T00:14:31.475Z,73
2019-05-25T00:15:07.557Z,73
2019-05-25T00:15:43.532Z,73
2019-05-25T00:16:19.523Z,73
2019-05-25T00:16:55.469Z,73
2019-05-25T00:17:31.566Z,73
2019-05-25T00:18:07.541Z,73
2019-05-25T00:18:43.516Z,73
2019-05-25T00:19:19.488Z,73
2019-05-25T00:19:55.559Z,73
2019-05-25T00:20:31.546Z,73
2019-05-25T00:21:07.505Z,73
2019-05-25T00:21:43.483Z,73
2019-05-25T00:22:19.553Z,73
2019-05-25T00:22:55.528Z,73
2019-05-25T00:23:31.515Z,73
2019-05-25T00:24:13.386Z,73
2019-05-25T00:24:43.554Z,73
2019-05-25T00:25:19.534Z,73
2019-05-25T00:25:55.566Z,73
2019-05-25T00:26:31.460Z,73
2019-05-25T00:27:07.556Z,73
2019-05-25T00:27:43.506Z,73
2019-05-25T00:28:19.504Z,73
2019-05-25T00:28:55.573Z,73
2019-05-25T00:29:31.549Z,73
2019-05-25T00:30:07.531Z,73
2019-05-25T00:30:43.503Z,73
2019-05-25T00:31:19.577Z,73
2019-05-25T00:31:55.544Z,73
2019-05-25T00:32:31.526Z,73
2019-05-25T00:33:07.488Z,73
2019-05-25T00:33:43.593Z,73
2019-05-25T00:34:19.546Z,72
2019-05-25T00:34:55.509Z,72
2019-05-25T00:35:31.470Z,72
2019-05-25T00:36:07.557Z,72
2019-05-25T00:36:43.549Z,72
2019-05-25T00:37:19.490Z,72
2019-05-25T00:37:55.487Z,72
2019-05-25T00:38:31.556Z,72
2019-05-25T00:39:07.532Z,72
2019-05-25T00:39:43.629Z,72
2019-05-25T00:40:19.475Z,72
2019-05-25T00:40:55.571Z,71
2019-05-25T00:41:31.540Z,71
2019-05-25T00:42:07.498Z,71
2019-05-25T00:42:43.471Z,71
2019-05-25T00:43:19.601Z,71
2019-05-25T00:43:55.525Z,71
2019-05-25T00:44:31.498Z,72
2019-05-25T00:45:07.462Z,72
2019-05-25T00:45:43.552Z,72
2019-05-25T00:46:19.529Z,72
2019-05-25T00:46:55.491Z,72
2019-05-25T00:47:31.464Z,72
2019-05-25T00:48:07.550Z,72
2019-05-25T00:48:43.529Z,72
2019-05-25T00:49:19.501Z,72
2019-05-25T00:49:55.468Z,72
2019-05-25T00:50:31.541Z,72
2019-05-25T00:51:07.521Z,72
2019-05-25T00:51:43.516Z,72
2019-05-25T00:52:19.577Z,72
2019-05-25T00:52:55.542Z,72
2019-05-25T00:53:31.533Z,72
2019-05-25T00:54:07.512Z,72
2019-05-25T00:54:43.454Z,72
2019-05-25T00:55:19.547Z,73
2019-05-25T00:55:55.525Z,73
2019-05-25T00:56:31.506Z,73
2019-05-25T00:57:07.459Z,73
2019-05-25T00:57:43.552Z,73
2019-05-25T00:58:19.585Z,73
2019-05-25T00:58:55.483Z,73
2019-05-25T00:59:31.478Z,73
2019-05-25T01:00:07.526Z,73
2019-05-25T01:00:43.533Z,73
2019-05-25T01:01:19.485Z,73
2019-05-25T01:01:55.449Z,73
2019-05-25T01:02:31.559Z,73
2019-05-25T01:03:07.501Z,73
2019-05-25T01:03:43.468Z,73
2019-05-25T01:04:19.452Z,73
2019-05-25T01:04:55.594Z,73
2019-05-25T01:05:31.528Z,73
2019-05-25T01:06:07.472Z,73
2019-05-25T01:06:43.431Z,73
2019-05-25T01:07:19.531Z,73
2019-05-25T01:07:55.507Z,73
2019-05-25T01:08:31.458Z,73
2019-05-25T01:09:07.437Z,73
2019-05-25T01:09:43.525Z,74
2019-05-25T01:10:19.513Z,73
2019-05-25T01:10:55.487Z,73
2019-05-25T01:11:31.439Z,73
2019-05-25T01:12:07.509Z,73
2019-05-25T01:12:43.497Z,73
2019-05-25T01:13:19.468Z,73
2019-05-25T01:13:55.562Z,73
2019-05-25T01:14:31.578Z,73
2019-05-25T01:15:07.484Z,73
2019-05-25T01:15:43.538Z,73
2019-05-25T01:16:19.554Z,73
2019-05-25T01:16:55.572Z,73
2019-05-25T01:17:31.491Z,73
2019-05-25T01:18:07.462Z,73
2019-05-25T01:18:43.547Z,73
2019-05-25T01:19:19.576Z,73
2019-05-25T01:19:55.502Z,73
2019-05-25T01:20:31.460Z,73
2019-05-25T01:21:07.568Z,73
2019-05-25T01:21:43.512Z,73
2019-05-25T01:22:19.494Z,73
2019-05-25T01:22:55.443Z,73
2019-05-25T01:23:31.536Z,73
2019-05-25T01:24:07.505Z,74
2019-05-25T01:24:45.379Z,74
2019-05-25T01:25:19.440Z,74
2019-05-25T01:25:55.545Z,74
2019-05-25T01:26:31.529Z,74
2019-05-25T01:27:07.479Z,74
2019-05-25T01:27:43.441Z,74
2019-05-25T01:28:19.533Z,74
2019-05-25T01:28:55.505Z,74
2019-05-25T01:29:31.496Z,74
2019-05-25T01:30:07.444Z,74
2019-05-25T01:30:45.051Z,74
2019-05-25T01:31:19.569Z,74
2019-05-25T01:31:55.494Z,74
2019-05-25T01:32:31.449Z,74
2019-05-25T01:33:07.521Z,73
2019-05-25T01:33:43.524Z,73
2019-05-25T01:34:19.599Z,73
2019-05-25T01:34:55.457Z,73
2019-05-25T01:35:31.541Z,73
2019-05-25T01:36:07.494Z,73
2019-05-25T01:36:43.457Z,73
2019-05-25T01:37:19.556Z,73
2019-05-25T01:37:55.509Z,73
2019-05-25T01:38:31.483Z,73
2019-05-25T01:39:07.477Z,73
2019-05-25T01:39:43.427Z,73
2019-05-25T01:40:19.528Z,73
2019-05-25T01:40:55.506Z,73
2019-05-25T01:41:31.464Z,73
2019-05-25T01:42:07.427Z,73
2019-05-25T01:42:43.520Z,72
2019-05-25T01:43:19.476Z,72
2019-05-25T01:43:55.442Z,72
2019-05-25T01:44:31.426Z,72
2019-05-25T01:45:07.518Z,72
2019-05-25T01:45:43.487Z,72
2019-05-25T01:46:19.454Z,72
2019-05-25T01:46:55.443Z,72
2019-05-25T01:47:31.505Z,72
2019-05-25T01:48:07.504Z,72
2019-05-25T01:48:43.539Z,72
2019-05-25T01:49:19.434Z,72
2019-05-25T01:49:55.503Z,72
2019-05-25T01:50:31.474Z,72
2019-05-25T01:51:07.442Z,72
2019-05-25T01:51:43.446Z,72
2019-05-25T01:52:19.564Z,72
2019-05-25T01:52:55.479Z,72
2019-05-25T01:53:31.454Z,72
2019-05-25T01:54:07.527Z,72
2019-05-25T01:55:00.719Z,72
2019-05-25T01:55:55.448Z,72
2019-05-25T01:56:31.516Z,72
2019-05-25T01:57:07.491Z,72
2019-05-25T01:57:43.468Z,72
2019-05-25T01:58:19.439Z,72
2019-05-25T01:58:55.537Z,72
2019-05-25T01:59:31.499Z,72
2019-05-25T02:00:07.483Z,72
2019-05-25T02:00:43.433Z,72
2019-05-25T02:01:19.523Z,72
2019-05-25T02:01:55.549Z,72
2019-05-25T02:02:31.496Z,73
2019-05-25T02:03:07.416Z,73
2019-05-25T02:03:43.517Z,73
2019-05-25T02:04:19.513Z,73
2019-05-25T02:04:55.499Z,73
2019-05-25T02:05:31.432Z,73
2019-05-25T02:06:07.529Z,73
2019-05-25T02:06:43.489Z,73
2019-05-25T02:07:19.478Z,73
2019-05-25T02:07:55.422Z,73
2019-05-25T02:08:31.517Z,73
2019-05-25T02:09:07.511Z,74
2019-05-25T02:09:43.590Z,74
2019-05-25T02:10:19.436Z,74
2019-05-25T02:10:55.516Z,74
2019-05-25T02:11:31.476Z,74
2019-05-25T02:12:07.449Z,74
2019-05-25T02:12:43.417Z,74
2019-05-25T02:13:19.505Z,74
2019-05-25T02:13:55.495Z,74
2019-05-25T02:14:31.450Z,74
2019-05-25T02:15:07.424Z,75
2019-05-25T02:15:43.503Z,75
2019-05-25T02:16:19.477Z,75
2019-05-25T02:16:55.449Z,75
2019-05-25T02:17:31.418Z,75
2019-05-25T02:18:07.506Z,75
2019-05-25T02:18:46.295Z,75
2019-05-25T02:19:19.570Z,75
2019-05-25T02:19:55.409Z,75
2019-05-25T02:20:31.508Z,76
2019-05-25T02:21:07.480Z,76
2019-05-25T02:21:43.444Z,76
2019-05-25T02:22:19.401Z,76
2019-05-25T02:22:55.759Z,76
2019-05-25T02:23:31.465Z,76
2019-05-25T02:24:07.448Z,76
2019-05-25T02:24:43.408Z,76
2019-05-25T02:25:19.700Z,76
2019-05-25T02:25:55.487Z,77
2019-05-25T02:26:31.437Z,77
2019-05-25T02:27:07.403Z,76
2019-05-25T02:27:43.563Z,76
2019-05-25T02:28:19.472Z,76
2019-05-25T02:28:55.432Z,76
2019-05-25T02:29:31.422Z,76
2019-05-25T02:30:07.529Z,76
2019-05-25T02:30:43.581Z,76
2019-05-25T02:31:19.436Z,77
2019-05-25T02:31:55.394Z,77
2019-05-25T02:32:31.508Z,77
2019-05-25T02:33:07.465Z,77
2019-05-25T02:33:43.423Z,77
2019-05-25T02:34:19.578Z,77
2019-05-25T02:34:55.484Z,77
2019-05-25T02:35:31.456Z,77
2019-05-25T02:36:07.431Z,77
2019-05-25T02:36:43.547Z,77
2019-05-25T02:37:19.493Z,78
2019-05-25T02:37:55.447Z,78
2019-05-25T02:38:31.413Z,77
2019-05-25T02:39:07.510Z,77
2019-05-25T02:39:43.470Z,78
2019-05-25T02:40:19.455Z,77
2019-05-25T02:40:55.437Z,78
2019-05-25T02:41:31.515Z,78
2019-05-25T02:42:07.497Z,78
2019-05-25T02:42:43.445Z,78
2019-05-25T02:43:19.421Z,79
2019-05-25T02:43:55.510Z,79
2019-05-25T02:44:31.482Z,79
2019-05-25T02:45:07.455Z,79
2019-05-25T02:45:43.418Z,79
2019-05-25T02:46:19.493Z,79
2019-05-25T02:46:55.472Z,79
2019-05-25T02:47:31.489Z,79
2019-05-25T02:48:07.408Z,80
2019-05-25T02:48:43.519Z,80
2019-05-25T02:49:19.556Z,80
2019-05-25T02:49:55.436Z,80
2019-05-25T02:50:31.402Z,80
2019-05-25T02:51:07.498Z,80
2019-05-25T02:51:43.467Z,80
2019-05-25T02:52:19.424Z,81
2019-05-25T02:52:55.462Z,81
2019-05-25T02:53:31.509Z,81
2019-05-25T02:54:07.465Z,81
2019-05-25T02:54:43.422Z,81
2019-05-25T02:55:35.629Z,81
2019-05-25T02:55:55.525Z,81
2019-05-25T02:56:31.466Z,81
2019-05-25T02:57:07.436Z,81
2019-05-25T02:57:43.393Z,81
2019-05-25T02:58:19.510Z,81
2019-05-25T02:58:55.458Z,81
2019-05-25T02:59:31.445Z,81
2019-05-25T03:00:07.423Z,82
2019-05-25T03:00:43.476Z,81
2019-05-25T03:01:19.478Z,81
2019-05-25T03:01:55.427Z,81
2019-05-25T03:02:31.394Z,81
2019-05-25T03:03:07.572Z,81
2019-05-25T03:03:43.558Z,81
2019-05-25T03:04:19.449Z,81
2019-05-25T03:04:55.389Z,81
2019-05-25T03:05:31.477Z,81
2019-05-25T03:06:08.845Z,81
2019-05-25T03:06:43.412Z,81
2019-05-25T03:07:19.386Z,81
2019-05-25T03:07:55.478Z,81
2019-05-25T03:08:31.439Z,82
2019-05-25T03:09:07.513Z,81
2019-05-25T03:09:43.375Z,81
2019-05-25T03:10:19.484Z,81
2019-05-25T03:10:55.476Z,81
2019-05-25T03:11:31.413Z,81
2019-05-25T03:12:07.498Z,81
2019-05-25T03:12:43.460Z,81
2019-05-25T03:13:19.438Z,81
2019-05-25T03:13:55.410Z,82
2019-05-25T03:14:31.530Z,82
2019-05-25T03:15:07.746Z,82
2019-05-25T03:15:43.425Z,82
2019-05-25T03:16:19.405Z,83
2019-05-25T03:16:55.483Z,83
2019-05-25T03:17:31.477Z,83
2019-05-25T03:18:07.462Z,83
2019-05-25T03:18:43.399Z,83
2019-05-25T03:19:19.512Z,83
2019-05-25T03:19:55.501Z,83
2019-05-25T03:20:31.426Z,83
2019-05-25T03:21:07.409Z,83
2019-05-25T03:21:43.548Z,83
2019-05-25T03:22:19.473Z,83
2019-05-25T03:22:55.423Z,84
2019-05-25T03:23:31.388Z,84
2019-05-25T03:24:07.488Z,84
2019-05-25T03:24:43.455Z,84
2019-05-25T03:25:19.432Z,84
2019-05-25T03:25:55.420Z,84
2019-05-25T03:26:31.503Z,84
2019-05-25T03:27:07.460Z,84
2019-05-25T03:27:43.430Z,84
2019-05-25T03:28:19.381Z,84
2019-05-25T03:28:55.505Z,84
2019-05-25T03:29:31.458Z,84
2019-05-25T03:30:07.542Z,84
2019-05-25T03:30:43.411Z,84
2019-05-25T03:31:19.490Z,85
2019-05-25T03:31:55.460Z,85
2019-05-25T03:32:31.433Z,85
2019-05-25T03:33:07.386Z,85
2019-05-25T03:33:43.486Z,85
2019-05-25T03:34:19.444Z,85
2019-05-25T03:34:55.494Z,85
2019-05-25T03:35:31.414Z,85
2019-05-25T03:36:07.493Z,85
2019-05-25T03:36:43.449Z,85
2019-05-25T03:37:19.412Z,85
2019-05-25T03:37:55.430Z,85
2019-05-25T03:38:31.461Z,85
2019-05-25T03:39:07.457Z,85
2019-05-25T03:39:43.407Z,85
2019-05-25T03:40:19.387Z,85
2019-05-25T03:40:55.483Z,85
2019-05-25T03:41:31.441Z,85
2019-05-25T03:42:07.417Z,85
2019-05-25T03:42:43.376Z,85
2019-05-25T03:43:19.462Z,85
2019-05-25T03:43:55.441Z,85
2019-05-25T03:44:31.405Z,85
2019-05-25T03:45:07.502Z,85
2019-05-25T03:45:43.469Z,85
2019-05-25T03:46:19.491Z,85
2019-05-25T03:46:55.416Z,85
2019-05-25T03:47:31.483Z,85
2019-05-25T03:48:07.460Z,85
2019-05-25T03:48:43.421Z,85
2019-05-25T03:49:19.401Z,84
2019-05-25T03:49:55.472Z,84
2019-05-25T03:50:31.461Z,84
2019-05-25T03:51:07.419Z,84
2019-05-25T03:51:43.393Z,84
2019-05-25T03:52:19.498Z,84
2019-05-25T03:52:55.446Z,84
2019-05-25T03:53:31.447Z,84
2019-05-25T03:54:07.399Z,84
2019-05-25T03:54:43.480Z,84
2019-05-25T03:55:19.450Z,84
2019-05-25T03:56:06.854Z,84
2019-05-25T03:57:07.473Z,84
2019-05-25T03:57:43.450Z,84
2019-05-25T03:58:19.557Z,84
2019-05-25T03:58:55.388Z,84
2019-05-25T03:59:31.474Z,84
2019-05-25T04:00:07.455Z,84
2019-05-25T04:00:43.412Z,84
2019-05-25T04:01:19.625Z,84
2019-05-25T04:01:55.472Z,84
2019-05-25T04:02:31.458Z,84
2019-05-25T04:03:07.449Z,84
2019-05-25T04:03:43.399Z,84
2019-05-25T04:04:19.555Z,85
2019-05-25T04:04:55.441Z,85
2019-05-25T04:05:31.419Z,84
2019-05-25T04:06:07.378Z,84
2019-05-25T04:06:43.493Z,84
2019-05-25T04:07:19.447Z,84
2019-05-25T04:07:55.416Z,84
2019-05-25T04:08:31.383Z,84
2019-05-25T04:09:07.457Z,84
2019-05-25T04:09:43.441Z,84
2019-05-25T04:10:19.407Z,84
2019-05-25T04:10:55.422Z,84
2019-05-25T04:11:31.455Z,83
2019-05-25T04:12:07.435Z,83
2019-05-25T04:12:43.390Z,83
2019-05-25T04:13:19.388Z,83
2019-05-25T04:13:55.467Z,82
2019-05-25T04:14:31.497Z,82
2019-05-25T04:15:07.394Z,82
2019-05-25T04:15:43.382Z,82
2019-05-25T04:16:19.458Z,82
2019-05-25T04:16:55.429Z,81
2019-05-25T04:17:31.392Z,81
2019-05-25T04:18:07.408Z,81
2019-05-25T04:18:43.473Z,81
2019-05-25T04:19:19.459Z,81
2019-05-25T04:19:55.394Z,81
2019-05-25T04:20:31.361Z,80
2019-05-25T04:21:07.450Z,80
2019-05-25T04:21:43.433Z,79
2019-05-25T04:22:19.392Z,79
2019-05-25T04:22:55.468Z,79
2019-05-25T04:23:31.440Z,79
2019-05-25T04:24:07.413Z,79
2019-05-25T04:24:43.404Z,79
2019-05-25T04:25:19.516Z,79
2019-05-25T04:25:55.461Z,78
2019-05-25T04:26:31.415Z,79
2019-05-25T04:27:07.377Z,78
2019-05-25T04:27:43.506Z,78
2019-05-25T04:28:19.446Z,78
2019-05-25T04:28:55.432Z,78
2019-05-25T04:29:31.383Z,78
2019-05-25T04:30:07.537Z,78
2019-05-25T04:30:43.442Z,78
2019-05-25T04:31:19.417Z,77
2019-05-25T04:31:55.384Z,77
2019-05-25T04:32:31.470Z,78
2019-05-25T04:33:07.442Z,78
2019-05-25T04:33:43.403Z,78
2019-05-25T04:34:19.364Z,78
2019-05-25T04:34:55.468Z,77
2019-05-25T04:35:31.439Z,77
2019-05-25T04:36:07.412Z,77
2019-05-25T04:36:43.380Z,77
2019-05-25T04:37:19.450Z,76
2019-05-25T04:37:55.423Z,76
2019-05-25T04:38:31.399Z,76
2019-05-25T04:39:07.377Z,75
2019-05-25T04:39:43.482Z,76
2019-05-25T04:40:23.385Z,75
2019-05-25T04:40:55.413Z,75
2019-05-25T04:41:31.366Z,75
2019-05-25T04:42:07.450Z,75
2019-05-25T04:42:43.471Z,75
2019-05-25T04:43:19.415Z,75
2019-05-25T04:43:55.361Z,75
2019-05-25T04:44:31.466Z,74
2019-05-25T04:45:07.431Z,74
2019-05-25T04:45:43.381Z,73
2019-05-25T04:46:22.161Z,74
2019-05-25T04:46:55.454Z,73
2019-05-25T04:47:31.409Z,74
2019-05-25T04:48:07.485Z,73
2019-05-25T04:48:43.353Z,73
2019-05-25T04:49:19.503Z,73
2019-05-25T04:49:55.414Z,73
2019-05-25T04:50:31.585Z,73
2019-05-25T04:51:07.358Z,72
2019-05-25T04:51:43.457Z,72
2019-05-25T04:52:19.421Z,72
2019-05-25T04:52:55.387Z,71
2019-05-25T04:53:31.348Z,71
2019-05-25T04:54:07.447Z,71
2019-05-25T04:54:43.402Z,71
2019-05-25T04:55:19.375Z,71
2019-05-25T04:55:55.592Z,71
2019-05-25T04:56:40.624Z,70
2019-05-25T04:57:07.638Z,70
2019-05-25T04:57:43.377Z,71
2019-05-25T04:58:19.375Z,71
2019-05-25T04:58:55.430Z,71
2019-05-25T04:59:31.397Z,71
2019-05-25T05:00:07.413Z,71
2019-05-25T05:00:43.352Z,71
2019-05-25T05:01:23.181Z,71
2019-05-25T05:01:55.433Z,71
2019-05-25T05:02:31.423Z,71
2019-05-25T05:03:07.330Z,71
2019-05-25T05:03:43.416Z,70
2019-05-25T05:04:19.654Z,70
2019-05-25T05:04:55.373Z,70
2019-05-25T05:05:31.326Z,70
2019-05-25T05:06:07.423Z,69
2019-05-25T05:06:43.699Z,70
2019-05-25T05:07:19.609Z,69
2019-05-25T05:07:55.480Z,69
2019-05-25T05:08:33.437Z,70
2019-05-25T05:09:07.383Z,70
2019-05-25T05:09:43.359Z,69
2019-05-25T05:10:19.470Z,70
2019-05-25T05:10:55.483Z,70
2019-05-25T05:11:31.396Z,70
2019-05-25T05:12:07.366Z,70
2019-05-25T05:12:43.497Z,70
2019-05-25T05:13:19.427Z,71
2019-05-25T05:13:55.411Z,71
2019-05-25T05:14:31.400Z,71
2019-05-25T05:15:07.478Z,71
2019-05-25T05:15:43.430Z,71
2019-05-25T05:16:19.390Z,70
2019-05-25T05:16:55.392Z,71
2019-05-25T05:17:31.536Z,70
2019-05-25T05:18:07.422Z,70
2019-05-25T05:18:43.406Z,71
2019-05-25T05:19:19.365Z,71
2019-05-25T05:19:55.450Z,71
2019-05-25T05:20:31.437Z,71
2019-05-25T05:21:07.375Z,71
2019-05-25T05:21:43.347Z,71
2019-05-25T05:22:19.448Z,71
2019-05-25T05:22:55.416Z,71
2019-05-25T05:23:31.365Z,71
2019-05-25T05:24:07.414Z,71
2019-05-25T05:24:43.429Z,71
2019-05-25T05:25:19.398Z,71
2019-05-25T05:25:55.395Z,71
2019-05-25T05:26:31.342Z,71
2019-05-25T05:27:07.445Z,71
2019-05-25T05:27:43.398Z,71
2019-05-25T05:28:19.371Z,71
2019-05-25T05:28:55.344Z,71
2019-05-25T05:29:31.458Z,71
2019-05-25T05:30:07.419Z,71
2019-05-25T05:30:43.451Z,71
2019-05-25T05:31:24.355Z,71
2019-05-25T05:31:55.437Z,71
2019-05-25T05:32:31.392Z,71
2019-05-25T05:33:07.356Z,70
2019-05-25T05:33:43.344Z,71
2019-05-25T05:34:19.421Z,71
2019-05-25T05:34:55.407Z,71
2019-05-25T05:35:31.360Z,71
2019-05-25T05:36:07.343Z,70
2019-05-25T05:36:43.415Z,70
2019-05-25T05:37:19.411Z,69
2019-05-25T05:37:55.362Z,69
2019-05-25T05:38:31.322Z,69
2019-05-25T05:39:07.426Z,69
2019-05-25T05:39:43.401Z,69
2019-05-25T05:40:19.360Z,69
2019-05-25T05:40:55.347Z,69
2019-05-25T05:41:31.869Z,69
2019-05-25T05:42:07.481Z,69
2019-05-25T05:42:43.369Z,69
2019-05-25T05:43:19.582Z,69
2019-05-25T05:43:55.410Z,69
2019-05-25T05:44:31.385Z,68
2019-05-25T05:45:07.374Z,67
2019-05-25T05:45:43.368Z,68
2019-05-25T05:46:19.669Z,68
2019-05-25T05:46:55.393Z,68
2019-05-25T05:47:31.352Z,68
2019-05-25T05:48:07.317Z,68
2019-05-25T05:48:43.455Z,68
2019-05-25T05:49:19.636Z,68
2019-05-25T05:49:55.360Z,67
2019-05-25T05:50:31.336Z,67
2019-05-25T05:51:07.405Z,67
2019-05-25T05:51:43.370Z,67
2019-05-25T05:52:19.344Z,67
2019-05-25T05:52:55.395Z,67
2019-05-25T05:53:31.399Z,67
2019-05-25T05:54:07.365Z,67
2019-05-25T05:54:43.334Z,67
2019-05-25T05:55:19.313Z,67
2019-05-25T05:55:55.454Z,67
2019-05-25T05:56:31.386Z,67
2019-05-25T05:57:13.387Z,67
2019-05-25T05:57:43.436Z,67
2019-05-25T05:58:19.426Z,68
2019-05-25T05:58:55.355Z,67
2019-05-25T05:59:31.339Z,67
2019-05-25T06:00:07.426Z,67
2019-05-25T06:00:43.404Z,67
2019-05-25T06:01:19.357Z,67
2019-05-25T06:01:55.346Z,68
2019-05-25T06:02:31.406Z,68
2019-05-25T06:03:07.385Z,68
2019-05-25T06:03:43.356Z,68
2019-05-25T06:04:19.332Z,68
2019-05-25T06:04:55.403Z,68
2019-05-25T06:05:31.387Z,68
2019-05-25T06:06:07.344Z,68
2019-05-25T06:06:43.327Z,69
2019-05-25T06:07:19.425Z,69
2019-05-25T06:07:55.367Z,69
2019-05-25T06:08:31.356Z,68
2019-05-25T06:09:07.327Z,68
2019-05-25T06:09:43.407Z,69
2019-05-25T06:10:19.388Z,69
2019-05-25T06:10:55.362Z,69
2019-05-25T06:11:31.318Z,69
2019-05-25T06:12:07.404Z,68
2019-05-25T06:12:43.434Z,68
2019-05-25T06:13:19.339Z,69
2019-05-25T06:13:55.321Z,68
2019-05-25T06:14:31.401Z,68
2019-05-25T06:15:07.400Z,68
2019-05-25T06:15:43.358Z,69
2019-05-25T06:16:19.337Z,68
2019-05-25T06:16:55.383Z,67
2019-05-25T06:17:31.813Z,67
2019-05-25T06:18:07.351Z,67
2019-05-25T06:18:43.306Z,68
2019-05-25T06:19:19.435Z,68
2019-05-25T06:19:55.370Z,68
2019-05-25T06:20:31.335Z,66
2019-05-25T06:21:07.288Z,66
2019-05-25T06:21:43.444Z,66
2019-05-25T06:22:19.359Z,66
2019-05-25T06:22:55.348Z,66
2019-05-25T06:23:31.321Z,66
2019-05-25T06:24:07.431Z,65
2019-05-25T06:24:43.356Z,66
2019-05-25T06:25:19.630Z,66
2019-05-25T06:25:55.357Z,67
2019-05-25T06:26:31.375Z,65
2019-05-25T06:27:07.356Z,66
2019-05-25T06:27:43.346Z,65
2019-05-25T06:28:22.931Z,64
2019-05-25T06:28:55.397Z,64
2019-05-25T06:29:31.363Z,64
2019-05-25T06:30:07.330Z,64
2019-05-25T06:30:43.299Z,64
2019-05-25T06:31:19.375Z,63
2019-05-25T06:31:55.356Z,62
2019-05-25T06:32:31.331Z,62
2019-05-25T06:33:07.290Z,61
2019-05-25T06:33:43.373Z,62
2019-05-25T06:34:19.386Z,61
2019-05-25T06:34:55.318Z,61
2019-05-25T06:35:31.295Z,60
2019-05-25T06:36:07.371Z,59
2019-05-25T06:36:43.351Z,59
2019-05-25T06:37:19.320Z,58
2019-05-25T06:37:55.298Z,58
2019-05-25T06:38:31.390Z,58
2019-05-25T06:39:07.357Z,58
2019-05-25T06:39:43.364Z,60
2019-05-25T06:40:19.285Z,60
2019-05-25T06:40:55.453Z,59
2019-05-25T06:41:31.341Z,59
2019-05-25T06:42:07.310Z,60
2019-05-25T06:42:43.281Z,62
2019-05-25T06:43:19.375Z,62
2019-05-25T06:43:55.348Z,62
2019-05-25T06:44:31.312Z,61
2019-05-25T06:45:07.337Z,61
2019-05-25T06:45:43.395Z,61
2019-05-25T06:46:19.335Z,61
2019-05-25T06:46:55.294Z,62
2019-05-25T06:47:31.267Z,62
2019-05-25T06:48:07.367Z,62
2019-05-25T06:48:43.333Z,63
2019-05-25T06:49:19.323Z,63
2019-05-25T06:49:55.269Z,64
2019-05-25T06:50:31.434Z,64
2019-05-25T06:51:07.341Z,65
2019-05-25T06:51:43.292Z,65
2019-05-25T06:52:19.270Z,65
2019-05-25T06:52:58.638Z,65
2019-05-25T06:53:31.352Z,65
2019-05-25T06:54:07.294Z,66
2019-05-25T06:54:43.261Z,65
2019-05-25T06:55:19.361Z,65
2019-05-25T06:55:55.371Z,65
2019-05-25T06:56:31.301Z,65
2019-05-25T06:57:07.375Z,66
2019-05-25T06:57:44.471Z,66
2019-05-25T06:58:19.329Z,65
2019-05-25T06:58:55.281Z,64
2019-05-25T06:59:31.393Z,64
2019-05-25T07:00:07.348Z,64
2019-05-25T07:00:43.305Z,64
2019-05-25T07:01:19.358Z,63
2019-05-25T07:01:55.368Z,63
2019-05-25T07:02:31.354Z,63
2019-05-25T07:03:07.319Z,63
2019-05-25T07:03:43.315Z,62
2019-05-25T07:04:19.377Z,62
2019-05-25T07:04:55.336Z,62
2019-05-25T07:05:31.384Z,62
2019-05-25T07:06:07.267Z,61
2019-05-25T07:06:43.432Z,61
2019-05-25T07:07:19.332Z,60
2019-05-25T07:07:55.503Z,61
2019-05-25T07:08:31.280Z,61
2019-05-25T07:09:07.364Z,60
2019-05-25T07:09:43.348Z,60
2019-05-25T07:10:19.294Z,60
2019-05-25T07:10:55.277Z,60
2019-05-25T07:11:31.359Z,60
2019-05-25T07:12:07.362Z,61
2019-05-25T07:12:43.296Z,61
2019-05-25T07:13:19.271Z,60
2019-05-25T07:13:55.401Z,61
2019-05-25T07:14:31.340Z,61
2019-05-25T07:15:07.298Z,61
2019-05-25T07:15:43.262Z,61
2019-05-25T07:16:19.355Z,62
2019-05-25T07:16:55.328Z,61
2019-05-25T07:17:31.309Z,61
2019-05-25T07:18:07.270Z,61
2019-05-25T07:18:43.355Z,62
2019-05-25T07:19:19.328Z,62
2019-05-25T07:19:55.329Z,61
2019-05-25T07:20:31.262Z,61
2019-05-25T07:21:19.268Z,61
2019-05-25T07:21:55.341Z,59
2019-05-25T07:22:31.423Z,60
2019-05-25T07:23:07.306Z,59
2019-05-25T07:23:43.268Z,59
2019-05-25T07:24:19.351Z,59
2019-05-25T07:24:55.327Z,58
2019-05-25T07:25:31.292Z,59
2019-05-25T07:26:07.294Z,58
2019-05-25T07:26:43.349Z,57
2019-05-25T07:27:19.320Z,58
2019-05-25T07:28:00.815Z,58
2019-05-25T07:28:31.254Z,58
2019-05-25T07:29:07.342Z,58
2019-05-25T07:29:43.306Z,58
2019-05-25T07:30:19.303Z,58
2019-05-25T07:30:56.780Z,58
2019-05-25T07:31:31.367Z,58
2019-05-25T07:32:07.302Z,58
2019-05-25T07:32:43.350Z,58
2019-05-25T07:33:19.274Z,57
2019-05-25T07:33:55.344Z,58
2019-05-25T07:34:31.320Z,59
2019-05-25T07:35:07.355Z,60
2019-05-25T07:35:43.240Z,60
2019-05-25T07:36:19.327Z,61
2019-05-25T07:36:55.302Z,61
2019-05-25T07:37:31.275Z,61
2019-05-25T07:38:07.380Z,61
2019-05-25T07:38:43.353Z,61
2019-05-25T07:39:19.817Z,61
2019-05-25T07:39:55.282Z,61
2019-05-25T07:40:31.243Z,61
2019-05-25T07:41:07.361Z,61
2019-05-25T07:41:43.314Z,60
2019-05-25T07:42:20.732Z,59
2019-05-25T07:42:55.237Z,59
2019-05-25T07:43:31.327Z,59
2019-05-25T07:44:07.313Z,60
2019-05-25T07:44:43.267Z,60
2019-05-25T07:45:19.249Z,60
2019-05-25T07:45:55.319Z,61
2019-05-25T07:46:31.290Z,60
2019-05-25T07:47:07.271Z,61
2019-05-25T07:47:43.231Z,61
2019-05-25T07:48:19.327Z,61
2019-05-25T07:48:55.294Z,61
2019-05-25T07:49:31.276Z,59
2019-05-25T07:50:07.264Z,59
2019-05-25T07:50:43.326Z,59
2019-05-25T07:51:19.339Z,59
2019-05-25T07:51:55.245Z,60
2019-05-25T07:52:31.220Z,59
2019-05-25T07:53:07.316Z,60
2019-05-25T07:53:43.285Z,60
2019-05-25T07:54:19.258Z,59
2019-05-25T07:54:55.245Z,58
2019-05-25T07:55:31.529Z,59
2019-05-25T07:56:07.522Z,60
2019-05-25T07:56:43.261Z,60
2019-05-25T07:57:19.333Z,59
2019-05-25T07:57:55.318Z,60
2019-05-25T07:58:31.276Z,59
2019-05-25T07:59:07.250Z,59
2019-05-25T07:59:43.360Z,59
2019-05-25T08:00:19.402Z,60
2019-05-25T08:00:55.345Z,60
2019-05-25T08:01:31.233Z,60
2019-05-25T08:02:07.342Z,60
2019-05-25T08:02:43.340Z,61
2019-05-25T08:03:19.347Z,61
2019-05-25T08:03:55.248Z,61
2019-05-25T08:04:31.324Z,61
2019-05-25T08:05:07.338Z,62
2019-05-25T08:05:43.275Z,60
2019-05-25T08:06:19.238Z,58
2019-05-25T08:07:07.249Z,59
2019-05-25T08:07:43.360Z,59
2019-05-25T08:08:19.293Z,59
2019-05-25T08:08:55.268Z,58
2019-05-25T08:09:31.281Z,58
2019-05-25T08:10:07.331Z,57
2019-05-25T08:10:43.358Z,59
2019-05-25T08:11:19.316Z,59
2019-05-25T08:11:55.240Z,60
2019-05-25T08:12:43.247Z,61
2019-05-25T08:13:19.319Z,61
2019-05-25T08:13:55.283Z,61
2019-05-25T08:14:31.259Z,62
2019-05-25T08:15:07.225Z,62
2019-05-25T08:15:43.373Z,61
2019-05-25T08:16:19.308Z,59
2019-05-25T08:16:55.268Z,60
2019-05-25T08:17:31.229Z,61
2019-05-25T08:18:07.409Z,60
2019-05-25T08:18:43.342Z,60
2019-05-25T08:19:19.282Z,60
2019-05-25T08:19:55.225Z,58
2019-05-25T08:20:31.305Z,58
2019-05-25T08:21:07.283Z,58
2019-05-25T08:21:43.264Z,58
2019-05-25T08:22:31.248Z,56
2019-05-25T08:23:07.230Z,55
2019-05-25T08:23:43.303Z,55
2019-05-25T08:24:19.288Z,55
2019-05-25T08:24:55.276Z,55
2019-05-25T08:25:31.219Z,55
2019-05-25T08:26:07.306Z,54
2019-05-25T08:26:43.432Z,53
2019-05-25T08:27:19.506Z,54
2019-05-25T08:27:55.210Z,54
2019-05-25T08:28:33.773Z,55
2019-05-25T08:29:07.260Z,54
2019-05-25T08:29:43.255Z,54
2019-05-25T08:30:19.209Z,56
2019-05-25T08:30:55.316Z,56
2019-05-25T08:31:55.230Z,58
2019-05-25T08:32:31.304Z,58
2019-05-25T08:33:07.274Z,55
2019-05-25T08:33:43.243Z,56
2019-05-25T08:34:19.202Z,56
2019-05-25T08:34:55.322Z,56
2019-05-25T08:35:31.283Z,55